Terminal Aerodrome Forecast
Issued by NWS Wilmington, OH

Current Version | Previous Version | Graphics & Text | Print | Product List | Glossary On
Versions: 1 2 3 4 5 6 7 8 9 10 11 12 13 14 15 16 17 18 19 20 21 22 23 24 25 26 27 28 29
000
FTUS41 KILN 182226 AAB
TAFCVG
TAF AMD
KCVG 182226Z 1822/1924 VRB05KT P6SM VCSH SCT030 OVC050
      TEMPO 1823/1901 29020G30KT 5SM SHRA BKN020 OVC040
     FM190100 27016G28KT P6SM BKN040
     FM190600 27014G24KT P6SM OVC025
     FM190900 29012G18KT P6SM OVC015
     FM191600 32012G20KT P6SM SCT025 BKN035=

USA.gov is the U.S. government's official web portal to all federal, state and local government web resources and services.